Time;durP1;ratioP1;P1;durP2;ratioP2;P2;SDS_P1;SDS_P2;PMS_P1;PMS_P2;Temp;Humidity;BMP_temperature;BMP_pressure;BME280_temperature;BME280_humidity;BME280_pressure;Samples;Min_cycle;Max_cycle;Signal;HPM_P1;HPM_P2
2021/10/06 00:00:11;;;;;;;16.27;13.17;;;14.80;99.90;;;;;;5108704;28;20379;-54
2021/10/06 00:02:36;;;;;;;16.60;13.83;;;14.70;99.90;;;;;;5110059;28;20187;-52
2021/10/06 00:05:03;;;;;;;14.07;12.57;;;14.70;99.90;;;;;;5110881;28;20452;-55
2021/10/06 00:07:28;;;;;;;14.40;12.93;;;14.70;99.90;;;;;;5110678;28;20174;-53
2021/10/06 00:09:54;;;;;;;14.77;13.27;;;14.70;99.90;;;;;;5110895;28;20452;-53
2021/10/06 00:12:19;;;;;;;16.07;13.33;;;14.70;99.90;;;;;;5108350;28;20182;-52
2021/10/06 00:14:45;;;;;;;16.10;12.30;;;14.60;99.90;;;;;;5109705;28;20214;-52
2021/10/06 00:17:10;;;;;;;14.80;12.27;;;14.60;99.90;;;;;;5110420;28;20181;-54
2021/10/06 00:19:36;;;;;;;14.60;12.97;;;14.70;99.90;;;;;;5109501;28;20510;-54
2021/10/06 00:22:02;;;;;;;13.53;12.10;;;14.70;99.90;;;;;;5107581;28;20186;-52
2021/10/06 00:24:27;;;;;;;14.83;12.20;;;14.80;99.90;;;;;;5109714;28;20182;-53
2021/10/06 00:26:53;;;;;;;15.80;12.67;;;14.70;99.90;;;;;;5109976;28;20221;-54
2021/10/06 00:29:18;;;;;;;15.27;12.73;;;14.80;99.90;;;;;;5110824;28;20644;-52
2021/10/06 00:31:44;;;;;;;15.37;12.67;;;14.80;99.90;;;;;;5107237;28;20200;-54
2021/10/06 00:34:09;;;;;;;13.17;11.83;;;14.70;99.90;;;;;;5088413;28;20294;-52
2021/10/06 00:36:35;;;;;;;13.43;11.70;;;14.70;99.90;;;;;;5104723;28;20182;-52
2021/10/06 00:39:00;;;;;;;14.20;12.70;;;14.70;99.90;;;;;;5107819;28;20189;-55
2021/10/06 00:41:26;;;;;;;17.67;13.73;;;14.70;99.90;;;;;;5105058;28;20174;-53
2021/10/06 00:43:51;;;;;;;13.87;12.43;;;14.70;99.90;;;;;;5109596;28;20178;-51
2021/10/06 00:46:17;;;;;;;16.20;13.20;;;14.70;99.90;;;;;;5109263;28;20182;-52
2021/10/06 00:48:42;;;;;;;16.77;14.60;;;14.60;99.90;;;;;;5109574;28;20192;-54
2021/10/06 00:51:08;;;;;;;15.40;13.17;;;14.60;99.90;;;;;;5105899;28;20207;-54
2021/10/06 00:53:34;;;;;;;14.43;12.80;;;14.60;99.90;;;;;;5108470;28;20182;-54
2021/10/06 00:55:59;;;;;;;13.93;12.20;;;14.60;99.90;;;;;;5107663;28;20267;-54
2021/10/06 00:58:25;;;;;;;15.03;12.57;;;14.60;99.90;;;;;;5110427;28;20539;-52
2021/10/06 01:00:50;;;;;;;15.20;13.33;;;14.60;99.90;;;;;;5106157;28;20188;-51
2021/10/06 01:03:20;;;;;;;17.23;14.20;;;14.60;99.70;;;;;;5112613;28;20632;-53
2021/10/06 01:05:47;;;;;;;16.60;14.03;;;14.60;97.30;;;;;;5113597;28;20180;-54
2021/10/06 01:08:13;;;;;;;19.40;14.67;;;14.60;94.60;;;;;;5109517;28;20475;-54
2021/10/06 01:10:38;;;;;;;16.20;13.73;;;14.70;87.10;;;;;;5111011;27;20444;-53
2021/10/06 01:13:05;;;;;;;17.23;13.40;;;14.70;67.80;;;;;;5109535;28;20199;-52
2021/10/06 01:15:31;;;;;;;15.27;12.87;;;14.70;53.90;;;;;;5112729;27;20446;-55
2021/10/06 01:17:56;;;;;;;16.20;12.63;;;14.80;45.10;;;;;;5110107;27;20411;-52
2021/10/06 01:20:22;;;;;;;14.17;11.90;;;14.80;35.60;;;;;;5112838;28;20200;-54
2021/10/06 01:22:47;;;;;;;13.83;11.87;;;14.80;35.50;;;;;;5108050;28;20190;-51
2021/10/06 01:25:16;;;;;;;15.83;11.63;;;14.80;23.50;;;;;;5113158;28;20186;-55
2021/10/06 01:27:41;;;;;;;12.87;11.30;;;14.90;22.40;;;;;;5112415;28;20195;-52
2021/10/06 01:30:10;;;;;;;19.30;13.03;;;14.90;17.00;;;;;;5111562;28;20439;-53
2021/10/06 01:32:38;;;;;;;13.77;11.93;;;14.80;18.30;;;;;;5113890;28;20179;-53
2021/10/06 01:35:06;;;;;;;14.90;11.83;;;14.90;14.40;;;;;;5092402;28;20464;-54
2021/10/06 01:37:32;;;;;;;14.13;12.30;;;14.90;13.20;;;;;;5110293;28;20520;-52
2021/10/06 01:39:59;;;;;;;13.60;11.83;;;15.00;8.70;;;;;;5107978;28;20503;-54
2021/10/06 01:42:25;;;;;;;14.37;12.83;;;14.90;4.30;;;;;;5111539;28;20460;-51
2021/10/06 01:44:50;;;;;;;14.07;12.10;;;14.90;6.90;;;;;;5112820;28;20441;-53
2021/10/06 01:47:21;;;;;;;15.03;13.30;;;14.90;5.00;;;;;;5113543;28;20176;-54
2021/10/06 01:49:47;;;;;;;14.07;12.53;;;14.90;8.10;;;;;;5112329;28;20201;-53
2021/10/06 01:52:18;;;;;;;13.70;12.30;;;15.00;1.00;;;;;;5112628;28;20440;-54
2021/10/06 01:54:44;;;;;;;13.30;11.87;;;15.00;1.00;;;;;;5112002;27;20894;-50
2021/10/06 01:57:10;;;;;;;13.40;12.00;;;15.00;1.00;;;;;;5092692;28;20411;-55
2021/10/06 01:59:36;;;;;;;13.57;12.20;;;15.00;1.00;;;;;;5110951;28;20507;-53
2021/10/06 02:02:02;;;;;;;13.77;12.27;;;15.00;1.00;;;;;;5111186;28;20180;-53
2021/10/06 02:04:28;;;;;;;15.27;11.90;;;15.20;1.00;;;;;;5113282;28;20794;-53
2021/10/06 02:06:53;;;;;;;14.50;12.30;;;15.10;1.00;;;;;;5103791;28;20415;-53
2021/10/06 02:09:19;;;;;;;13.00;11.40;;;15.10;1.00;;;;;;5103618;28;20213;-51
2021/10/06 02:11:44;;;;;;;14.30;12.80;;;15.20;1.00;;;;;;5105574;28;20190;-55
2021/10/06 02:14:10;;;;;;;14.07;12.47;;;15.10;1.00;;;;;;5112169;28;20216;-52
2021/10/06 02:16:35;;;;;;;13.73;12.03;;;15.10;1.00;;;;;;5094006;28;20537;-54
2021/10/06 02:19:01;;;;;;;12.67;11.37;;;15.10;1.00;;;;;;5112204;28;20184;-52
2021/10/06 02:21:26;;;;;;;14.33;12.20;;;15.10;1.00;;;;;;5108694;28;20632;-51
2021/10/06 02:23:52;;;;;;;12.97;11.60;;;15.10;1.00;;;;;;5112917;28;20178;-53
2021/10/06 02:26:17;;;;;;;13.23;11.93;;;15.10;1.00;;;;;;5111977;28;20206;-51
2021/10/06 02:28:43;;;;;;;13.57;11.87;;;15.10;1.00;;;;;;5104757;28;20182;-53
2021/10/06 02:31:08;;;;;;;13.30;11.90;;;15.20;1.00;;;;;;5107480;28;20175;-54
2021/10/06 02:33:34;;;;;;;12.40;11.20;;;15.20;1.00;;;;;;5110095;28;20238;-53
2021/10/06 02:35:59;;;;;;;11.93;10.73;;;15.20;1.00;;;;;;5111001;28;20208;-52
2021/10/06 02:38:25;;;;;;;12.83;11.53;;;15.10;1.00;;;;;;5112684;28;20210;-52
2021/10/06 02:40:50;;;;;;;13.03;11.70;;;15.20;1.00;;;;;;5090578;28;20693;-54
2021/10/06 02:43:16;;;;;;;12.70;11.50;;;15.20;1.00;;;;;;5110021;28;20613;-52
2021/10/06 02:45:42;;;;;;;13.33;11.40;;;15.20;1.00;;;;;;5111665;28;20728;-54
2021/10/06 02:48:07;;;;;;;14.50;13.10;;;15.30;1.00;;;;;;5112880;28;20185;-55
2021/10/06 02:50:33;;;;;;;14.40;12.90;;;15.30;1.00;;;;;;5110335;28;20673;-54
2021/10/06 02:52:58;;;;;;;14.97;13.27;;;15.20;1.00;;;;;;5112428;28;20465;-52
2021/10/06 02:55:24;;;;;;;13.93;12.47;;;15.10;1.00;;;;;;5108489;28;20211;-55
2021/10/06 02:57:49;;;;;;;12.60;11.40;;;15.00;1.00;;;;;;5109990;28;20575;-53
2021/10/06 03:00:15;;;;;;;13.50;12.20;;;14.90;1.00;;;;;;5104797;28;20191;-55
2021/10/06 03:02:41;;;;;;;12.70;11.50;;;14.90;1.00;;;;;;5112017;28;20547;-51
2021/10/06 03:05:09;;;;;;;14.63;13.20;;;15.00;1.00;;;;;;5109073;28;20446;-51
2021/10/06 03:07:35;;;;;;;12.80;11.50;;;15.00;1.00;;;;;;5112160;28;20313;-51
2021/10/06 03:10:00;;;;;;;13.43;12.13;;;15.00;1.00;;;;;;5106266;28;20896;-53
2021/10/06 03:12:26;;;;;;;13.63;12.23;;;15.00;1.00;;;;;;5110595;28;20206;-54
2021/10/06 03:14:51;;;;;;;12.80;11.60;;;15.00;1.00;;;;;;5111528;28;20206;-54
2021/10/06 03:17:17;;;;;;;13.17;11.87;;;15.00;1.00;;;;;;5108998;28;20240;-53
2021/10/06 03:19:42;;;;;;;12.47;11.37;;;15.10;1.00;;;;;;5111644;28;20198;-53
2021/10/06 03:22:08;;;;;;;12.37;10.30;;;15.00;1.00;;;;;;5107614;28;20193;-52
2021/10/06 03:24:34;;;;;;;12.37;11.07;;;15.20;1.00;;;;;;5110898;28;20216;-54
2021/10/06 03:26:59;;;;;;;11.30;10.20;;;15.20;1.00;;;;;;5107177;28;20269;-54
2021/10/06 03:29:25;;;;;;;12.07;10.83;;;15.10;1.00;;;;;;5111549;28;20525;-52
2021/10/06 03:31:50;;;;;;;13.63;10.43;;;15.10;1.00;;;;;;5106876;28;20886;-53
2021/10/06 03:34:16;;;;;;;12.43;10.90;;;15.20;1.00;;;;;;5111461;28;20303;-53
2021/10/06 03:36:42;;;;;;;12.60;10.67;;;15.20;1.00;;;;;;5106163;28;20192;-51
2021/10/06 03:39:08;;;;;;;10.30;9.40;;;15.20;1.00;;;;;;5107631;28;20560;-53
2021/10/06 03:41:33;;;;;;;6.37;5.77;;;15.20;1.00;;;;;;5109573;28;20971;-54
2021/10/06 03:43:59;;;;;;;4.83;3.90;;;15.30;1.00;;;;;;5092880;28;20269;-52
2021/10/06 03:46:24;;;;;;;4.33;3.83;;;15.40;1.00;;;;;;5107520;27;20240;-53
2021/10/06 03:48:51;;;;;;;4.37;3.93;;;15.40;1.00;;;;;;5109233;28;20178;-52
2021/10/06 03:51:17;;;;;;;4.47;4.07;;;15.80;1.00;;;;;;5106137;28;20659;-52
2021/10/06 03:53:42;;;;;;;4.80;4.40;;;15.80;1.00;;;;;;5107249;28;20479;-51
2021/10/06 03:56:08;;;;;;;4.30;3.47;;;15.70;1.00;;;;;;5104944;28;20258;-53
2021/10/06 03:58:34;;;;;;;3.53;3.23;;;15.80;1.00;;;;;;5110656;28;20265;-53
2021/10/06 04:01:00;;;;;;;3.67;3.07;;;15.90;1.00;;;;;;5106311;28;20264;-52
2021/10/06 04:03:26;;;;;;;4.03;3.70;;;16.10;1.00;;;;;;5108705;28;20968;-53
2021/10/06 04:05:51;;;;;;;4.57;3.07;;;16.10;1.00;;;;;;5108049;28;20506;-52
2021/10/06 04:08:17;;;;;;;1.70;1.60;;;16.00;1.00;;;;;;5110437;28;20192;-52
2021/10/06 04:10:43;;;;;;;2.20;1.27;;;16.20;1.00;;;;;;5106180;28;20187;-54
2021/10/06 04:13:09;;;;;;;2.77;1.53;;;16.20;1.00;;;;;;5110724;28;20424;-56
2021/10/06 04:15:35;;;;;;;2.70;0.97;;;16.10;1.00;;;;;;5108571;28;20413;-52
2021/10/06 04:18:04;;;;;;;1.30;1.20;;;16.10;1.00;;;;;;5107530;28;20721;-55
2021/10/06 04:20:30;;;;;;;1.20;1.10;;;16.10;1.00;;;;;;5108419;28;20656;-52
2021/10/06 04:22:55;;;;;;;1.60;1.10;;;16.00;1.00;;;;;;5108165;28;20416;-54
2021/10/06 04:25:21;;;;;;;2.37;2.17;;;16.00;1.00;;;;;;5110019;28;20198;-52
2021/10/06 04:27:46;;;;;;;2.10;1.20;;;16.00;1.00;;;;;;5105575;28;20186;-52
2021/10/06 04:30:12;;;;;;;1.10;1.00;;;16.00;1.00;;;;;;5109789;28;20187;-53
2021/10/06 04:32:39;;;;;;;1.10;1.00;;;16.00;1.00;;;;;;5106291;28;20187;-53
2021/10/06 04:35:05;;;;;;;2.00;1.13;;;16.00;1.00;;;;;;5105235;28;20694;-53
2021/10/06 04:37:31;;;;;;;2.00;1.00;;;16.00;1.00;;;;;;5110054;28;20693;-54
2021/10/06 04:39:56;;;;;;;1.40;1.30;;;16.00;1.00;;;;;;5107359;28;20450;-52
2021/10/06 04:42:22;;;;;;;2.03;1.30;;;15.90;1.00;;;;;;5110188;28;20578;-54
2021/10/06 04:44:47;;;;;;;1.23;0.80;;;15.80;1.00;;;;;;5107962;28;20188;-55
2021/10/06 04:47:13;;;;;;;2.10;1.07;;;15.80;1.00;;;;;;5107514;28;20718;-55
2021/10/06 04:49:38;;;;;;;1.53;1.17;;;15.90;1.00;;;;;;5109345;28;20692;-52
2021/10/06 04:52:04;;;;;;;2.90;2.70;;;15.90;1.00;;;;;;5107927;28;20230;-55
2021/10/06 04:54:30;;;;;;;1.10;1.00;;;15.80;1.00;;;;;;5109262;28;20212;-52
2021/10/06 04:56:55;;;;;;;2.17;1.20;;;15.90;1.00;;;;;;5105923;28;20182;-53
2021/10/06 04:59:20;;;;;;;1.30;1.20;;;15.80;1.00;;;;;;5109661;28;20688;-56
2021/10/06 05:01:46;;;;;;;3.07;1.20;;;15.90;1.00;;;;;;5104017;28;20196;-53
2021/10/06 05:04:11;;;;;;;1.30;0.97;;;15.80;1.00;;;;;;5110017;28;20646;-54
2021/10/06 05:06:38;;;;;;;3.17;0.90;;;15.80;1.00;;;;;;5108881;28;20194;-55
2021/10/06 05:09:03;;;;;;;3.03;1.20;;;15.80;1.00;;;;;;5107739;28;20227;-53
2021/10/06 05:11:29;;;;;;;1.77;1.10;;;15.80;1.00;;;;;;5104897;28;20441;-52
2021/10/06 05:13:55;;;;;;;2.90;1.30;;;15.70;1.00;;;;;;5107432;28;20178;-53
2021/10/06 05:16:21;;;;;;;1.50;0.87;;;15.60;1.00;;;;;;5108876;28;20186;-53
2021/10/06 05:18:46;;;;;;;3.63;1.10;;;15.70;1.00;;;;;;5106547;28;20527;-52
2021/10/06 05:21:12;;;;;;;3.37;1.07;;;15.70;1.00;;;;;;5105737;28;20182;-54
2021/10/06 05:23:37;;;;;;;3.83;1.50;;;15.60;1.00;;;;;;5106288;28;20190;-53
2021/10/06 05:26:03;;;;;;;2.70;1.80;;;15.60;1.00;;;;;;5107497;28;20186;-54
2021/10/06 05:28:29;;;;;;;1.77;1.10;;;15.60;1.00;;;;;;5089999;28;20179;-52
2021/10/06 05:30:55;;;;;;;2.50;1.30;;;15.50;1.00;;;;;;5107361;28;20194;-55
2021/10/06 05:33:21;;;;;;;2.67;1.13;;;15.50;1.00;;;;;;5105765;28;20183;-53
2021/10/06 05:35:47;;;;;;;2.13;1.20;;;15.50;1.00;;;;;;5107440;28;20959;-53
2021/10/06 05:38:12;;;;;;;2.77;1.33;;;15.50;1.00;;;;;;5106329;28;20411;-53
2021/10/06 05:40:38;;;;;;;3.47;0.90;;;15.50;1.00;;;;;;5108790;28;20566;-53
2021/10/06 05:43:04;;;;;;;3.33;1.27;;;15.60;1.00;;;;;;5108941;28;20293;-52
2021/10/06 05:45:29;;;;;;;3.63;1.20;;;15.60;1.00;;;;;;5108106;28;20182;-51
2021/10/06 05:47:55;;;;;;;5.40;1.20;;;15.60;1.00;;;;;;5109270;28;20711;-56
2021/10/06 05:50:20;;;;;;;8.57;2.50;;;15.60;1.00;;;;;;5111889;28;20229;-56
2021/10/06 05:52:46;;;;;;;3.90;1.60;;;15.50;1.00;;;;;;5112343;28;20251;-53
2021/10/06 05:55:11;;;;;;;2.80;1.10;;;15.60;1.00;;;;;;5111490;28;20288;-55
2021/10/06 05:57:37;;;;;;;4.50;1.43;;;15.50;1.00;;;;;;5112614;28;20190;-53
2021/10/06 06:00:06;;;;;;;4.30;1.50;;;15.60;1.00;;;;;;5112184;28;20179;-55
2021/10/06 06:02:32;;;;;;;2.80;1.13;;;15.50;1.00;;;;;;5112297;28;20175;-54
2021/10/06 06:04:57;;;;;;;4.90;1.20;;;15.70;1.00;;;;;;5109537;28;20445;-54
2021/10/06 06:07:23;;;;;;;3.90;0.90;;;15.70;1.00;;;;;;5099457;28;20559;-56
2021/10/06 06:09:48;;;;;;;2.10;1.30;;;15.70;1.00;;;;;;5112348;28;20183;-54
2021/10/06 06:12:14;;;;;;;1.53;0.93;;;15.70;1.00;;;;;;5106707;28;20190;-53
2021/10/06 06:14:41;;;;;;;2.47;1.20;;;15.70;1.00;;;;;;5106433;28;20203;-55
2021/10/06 06:17:07;;;;;;;3.70;1.30;;;15.60;1.00;;;;;;5112316;28;20171;-54
2021/10/06 06:19:33;;;;;;;2.67;1.27;;;15.60;1.00;;;;;;5112800;28;20436;-58
2021/10/06 06:21:59;;;;;;;1.70;1.30;;;15.60;1.00;;;;;;5105151;28;20452;-53
2021/10/06 06:24:26;;;;;;;3.67;1.30;;;15.80;1.00;;;;;;5110649;28;20186;-53
2021/10/06 06:26:53;;;;;;;2.43;1.30;;;15.70;1.00;;;;;;5112111;28;20447;-55
2021/10/06 06:29:19;;;;;;;4.37;1.40;;;15.90;1.00;;;;;;5091692;28;20448;-53
2021/10/06 06:31:45;;;;;;;5.13;1.47;;;16.00;1.00;;;;;;5109115;28;20419;-54
2021/10/06 06:34:10;;;;;;;3.40;1.43;;;16.00;1.00;;;;;;5107072;28;20530;-55
2021/10/06 06:36:36;;;;;;;3.43;1.30;;;16.00;1.00;;;;;;5110644;28;20182;-53
2021/10/06 06:39:03;;;;;;;1.70;1.23;;;16.00;1.00;;;;;;5111745;28;20177;-53
2021/10/06 06:41:28;;;;;;;2.50;1.20;;;16.00;1.00;;;;;;5111083;28;20186;-53
2021/10/06 06:43:54;;;;;;;4.37;1.13;;;15.80;1.00;;;;;;5109707;28;20526;-50
2021/10/06 06:46:19;;;;;;;4.73;1.73;;;15.70;1.00;;;;;;5112110;28;20324;-53
2021/10/06 06:48:45;;;;;;;1.90;1.50;;;15.80;1.00;;;;;;5110756;28;20178;-55
2021/10/06 06:51:10;;;;;;;3.77;1.20;;;15.90;1.00;;;;;;5106538;28;20230;-53
2021/10/06 06:53:36;;;;;;;1.87;1.30;;;16.10;1.00;;;;;;5110165;28;20181;-54
2021/10/06 06:56:02;;;;;;;3.50;1.20;;;16.20;1.00;;;;;;5109959;28;20285;-53
2021/10/06 06:58:28;;;;;;;1.90;1.20;;;16.20;1.00;;;;;;5108844;28;20178;-54
2021/10/06 07:00:53;;;;;;;6.13;1.40;;;16.20;1.00;;;;;;5108154;28;20412;-55
2021/10/06 07:03:19;;;;;;;4.60;1.80;;;16.20;1.00;;;;;;5109991;28;20183;-50
2021/10/06 07:05:46;;;;;;;4.07;1.47;;;16.20;1.00;;;;;;5111599;28;20436;-55
2021/10/06 07:08:12;;;;;;;4.50;1.40;;;16.40;1.00;;;;;;5108536;28;20466;-54
2021/10/06 07:10:38;;;;;;;2.63;1.50;;;16.30;1.00;;;;;;5099606;28;20432;-53
2021/10/06 07:13:04;;;;;;;3.00;1.47;;;16.20;1.00;;;;;;5090537;28;20448;-54
2021/10/06 07:15:30;;;;;;;4.30;1.20;;;16.20;1.00;;;;;;5110390;28;20767;-52
2021/10/06 07:17:56;;;;;;;2.70;1.70;;;16.20;1.00;;;;;;5109198;28;20223;-52
2021/10/06 07:20:22;;;;;;;3.93;1.80;;;16.30;1.00;;;;;;5109518;28;20189;-51
2021/10/06 07:22:48;;;;;;;2.27;1.47;;;16.30;1.00;;;;;;5108201;28;20465;-53
2021/10/06 07:25:14;;;;;;;3.53;1.63;;;16.10;1.00;;;;;;5108819;27;20290;-52
2021/10/06 07:27:40;;;;;;;2.20;1.30;;;16.00;1.00;;;;;;5103895;27;20444;-55
2021/10/06 07:30:06;;;;;;;3.50;1.70;;;15.90;1.00;;;;;;5109105;27;20466;-54
2021/10/06 07:32:32;;;;;;;2.90;1.60;;;15.90;1.00;;;;;;5108377;28;20671;-53
2021/10/06 07:34:57;;;;;;;3.60;1.70;;;16.00;1.00;;;;;;5110681;28;20578;-54
2021/10/06 07:37:23;;;;;;;3.00;2.07;;;16.10;1.00;;;;;;5108625;28;20179;-54
2021/10/06 07:39:50;;;;;;;2.23;1.70;;;16.50;1.00;;;;;;5107192;28;20174;-52
2021/10/06 07:42:16;;;;;;;1.70;1.40;;;16.30;1.00;;;;;;5107353;28;20472;-52
2021/10/06 07:44:45;;;;;;;2.50;1.53;;;16.40;1.00;;;;;;5108003;28;20929;-54
2021/10/06 07:47:11;;;;;;;3.10;1.67;;;16.60;1.00;;;;;;5103955;28;20441;-53
2021/10/06 07:49:37;;;;;;;2.33;1.00;;;16.70;1.00;;;;;;5110960;28;20438;-54
2021/10/06 07:52:03;;;;;;;3.33;1.70;;;16.80;1.00;;;;;;5107316;28;20218;-53
2021/10/06 07:54:29;;;;;;;2.47;1.90;;;16.80;1.00;;;;;;5106822;28;20232;-55
2021/10/06 07:56:54;;;;;;;3.53;1.20;;;16.80;1.00;;;;;;5109141;28;20467;-55
2021/10/06 07:59:20;;;;;;;1.80;1.20;;;16.90;1.00;;;;;;5103083;28;20632;-54
2021/10/06 08:01:45;;;;;;;3.43;1.57;;;17.10;1.00;;;;;;5107788;28;20236;-55
2021/10/06 08:04:11;;;;;;;1.87;1.23;;;17.00;1.00;;;;;;5107063;28;20174;-53
2021/10/06 08:06:36;;;;;;;2.43;1.30;;;17.10;1.00;;;;;;5110493;28;20186;-53
2021/10/06 08:09:05;;;;;;;2.13;1.40;;;17.20;1.00;;;;;;5110060;28;20229;-52
2021/10/06 08:11:31;;;;;;;2.03;1.20;;;17.30;1.00;;;;;;5109529;28;20188;-54
2021/10/06 08:13:56;;;;;;;7.17;1.60;;;17.60;1.00;;;;;;5103776;28;20426;-54
2021/10/06 08:16:22;;;;;;;5.00;1.43;;;17.70;1.00;;;;;;5110557;28;20881;-53
2021/10/06 08:18:47;;;;;;;1.73;1.10;;;18.20;1.00;;;;;;5108354;28;20178;-52
2021/10/06 08:21:13;;;;;;;3.00;1.30;;;18.40;1.00;;;;;;5105932;28;20190;-57
2021/10/06 08:23:38;;;;;;;6.33;1.33;;;18.90;1.00;;;;;;5107037;28;20197;-53
2021/10/06 08:26:04;;;;;;;5.20;1.50;;;19.20;1.00;;;;;;5106819;28;20224;-52
2021/10/06 08:28:30;;;;;;;1.97;0.77;;;19.40;1.00;;;;;;5108223;28;20198;-53
2021/10/06 08:30:55;;;;;;;2.43;1.23;;;19.40;1.00;;;;;;5110009;28;20182;-56
2021/10/06 08:33:21;;;;;;;1.80;1.00;;;19.20;1.00;;;;;;5106920;28;20538;-54
2021/10/06 08:35:47;;;;;;;2.43;1.13;;;19.20;1.00;;;;;;5104489;28;20232;-52
2021/10/06 08:38:12;;;;;;;1.27;0.90;;;19.00;1.00;;;;;;5109115;28;20205;-56
2021/10/06 08:40:38;;;;;;;2.27;0.90;;;18.90;1.00;;;;;;5108182;28;20177;-55
2021/10/06 08:43:06;;;;;;;2.63;0.83;;;18.90;1.00;;;;;;5108686;28;20185;-55
2021/10/06 08:45:32;;;;;;;0.80;0.70;;;18.70;1.00;;;;;;5108549;28;20433;-54
2021/10/06 08:48:00;;;;;;;1.60;0.87;;;18.30;1.00;;;;;;5107278;28;20445;-54
2021/10/06 08:50:26;;;;;;;3.20;1.20;;;17.80;1.00;;;;;;5108346;28;20477;-54
2021/10/06 08:52:51;;;;;;;3.60;0.93;;;18.00;1.00;;;;;;5108027;28;20474;-56
2021/10/06 08:55:21;;;;;;;2.10;0.77;;;18.00;1.00;;;;;;5102995;28;20215;-55
2021/10/06 08:57:46;;;;;;;1.27;0.80;;;17.60;1.00;;;;;;5106803;28;20614;-55
2021/10/06 09:00:12;;;;;;;2.13;0.87;;;17.60;1.00;;;;;;5106031;28;20449;-56
2021/10/06 09:02:39;;;;;;;1.87;0.90;;;17.40;1.00;;;;;;5106605;28;20187;-54
2021/10/06 09:05:06;;;;;;;1.50;0.87;;;17.40;1.00;;;;;;5108018;28;20193;-54
2021/10/06 09:07:32;;;;;;;1.40;0.80;;;17.30;1.00;;;;;;5106982;28;20448;-54
2021/10/06 09:10:13;;;;;;;0.60;0.60;;;17.30;1.00;;;;;;5107963;28;20454;-53
2021/10/06 09:12:40;;;;;;;2.10;1.33;;;17.40;1.00;;;;;;5106963;28;20636;-53
2021/10/06 09:15:10;;;;;;;1.80;1.03;;;17.30;1.00;;;;;;5109317;28;20468;-54
2021/10/06 09:17:38;;;;;;;1.90;1.37;;;17.20;1.00;;;;;;5108229;28;20433;-54
2021/10/06 09:20:09;;;;;;;1.33;0.70;;;17.50;1.00;;;;;;5107088;28;20414;-53
2021/10/06 09:22:35;;;;;;;3.13;1.00;;;17.40;1.00;;;;;;5109680;28;20977;-54
2021/10/06 09:25:06;;;;;;;1.70;0.83;;;17.60;1.00;;;;;;5109646;28;20445;-53
2021/10/06 09:27:37;;;;;;;4.20;1.03;;;17.40;1.00;;;;;;5110876;28;20193;-56
2021/10/06 09:30:14;;;;;;;1.23;0.60;;;17.10;1.00;;;;;;5111217;28;20432;-51
2021/10/06 09:32:43;;;;;;;2.50;0.87;;;17.10;1.00;;;;;;5105579;28;20415;-52
2021/10/06 09:35:21;;;;;;;2.30;1.00;;;17.20;1.00;;;;;;5113168;28;21024;-53
2021/10/06 09:37:49;;;;;;;1.30;1.00;;;17.20;1.00;;;;;;5112922;28;20784;-54
2021/10/06 09:40:17;;;;;;;2.00;0.77;;;17.30;1.00;;;;;;5111929;28;20440;-52
2021/10/06 09:42:47;;;;;;;2.00;1.07;;;17.40;1.00;;;;;;5109183;28;20446;-52
2021/10/06 09:45:28;;;;;;;2.93;1.00;;;17.70;1.00;;;;;;5112160;28;20535;-53
2021/10/06 09:48:11;;;;;;;2.50;0.90;;;17.70;1.00;;;;;;5107538;28;20467;-52
2021/10/06 09:50:49;;;;;;;2.27;0.93;;;17.80;1.00;;;;;;5107575;28;20434;-54
2021/10/06 09:53:24;;;;;;;3.37;1.20;;;17.80;1.00;;;;;;5111671;28;20916;-53
2021/10/06 09:55:52;;;;;;;2.40;0.83;;;17.80;1.00;;;;;;5108090;28;21009;-54
2021/10/06 09:58:19;;;;;;;5.13;0.80;;;17.80;1.00;;;;;;5110690;28;20443;-53
2021/10/06 10:00:48;;;;;;;0.97;0.60;;;17.70;1.00;;;;;;5109421;27;20439;-55
2021/10/06 10:03:13;;;;;;;1.97;0.93;;;17.70;1.00;;;;;;5109433;28;20445;-54
2021/10/06 10:05:40;;;;;;;2.30;0.80;;;17.70;1.00;;;;;;5110525;28;20427;-55
2021/10/06 10:08:07;;;;;;;1.17;0.60;;;17.90;1.00;;;;;;5108554;28;20188;-55
2021/10/06 10:10:34;;;;;;;1.60;0.80;;;18.00;1.00;;;;;;5112345;28;20450;-53
2021/10/06 10:13:01;;;;;;;3.00;1.20;;;18.10;1.00;;;;;;5112544;28;20829;-54
2021/10/06 10:15:28;;;;;;;2.30;1.00;;;18.20;1.00;;;;;;5112321;28;20497;-54
2021/10/06 10:17:55;;;;;;;3.23;1.00;;;18.40;1.00;;;;;;5112601;28;20926;-56
2021/10/06 10:20:21;;;;;;;2.87;1.20;;;18.60;1.00;;;;;;5112427;28;20751;-52
2021/10/06 10:22:55;;;;;;;4.53;0.90;;;18.40;1.00;;;;;;5110099;28;20423;-53
2021/10/06 10:25:29;;;;;;;2.10;1.00;;;18.50;1.00;;;;;;5112306;28;20446;-53
2021/10/06 10:28:03;;;;;;;1.97;0.90;;;18.50;1.00;;;;;;5109705;28;20453;-54
2021/10/06 10:30:30;;;;;;;1.93;1.00;;;18.40;1.00;;;;;;5112088;28;20425;-54
2021/10/06 10:32:56;;;;;;;1.10;1.00;;;18.40;1.00;;;;;;5110485;28;20444;-52
2021/10/06 10:35:31;;;;;;;2.40;1.40;;;18.30;1.00;;;;;;5109266;28;20925;-53
2021/10/06 10:38:00;;;;;;;2.00;1.20;;;18.30;1.00;;;;;;5112294;28;20479;-53
2021/10/06 10:40:34;;;;;;;1.93;0.90;;;18.40;1.00;;;;;;5111844;28;20485;-54
2021/10/06 10:43:00;;;;;;;1.93;1.13;;;18.40;1.00;;;;;;5112340;28;20442;-53
2021/10/06 10:46:03;;;;;;;2.00;1.00;;;18.40;1.00;;;;;;5111964;28;20496;-54
2021/10/06 10:48:47;;;;;;;4.83;1.10;;;18.60;1.00;;;;;;5112089;28;20188;-53
2021/10/06 10:51:13;;;;;;;2.10;1.07;;;18.70;1.00;;;;;;5111018;28;20453;-55
2021/10/06 10:53:50;;;;;;;2.50;1.20;;;18.70;1.00;;;;;;5111061;28;20448;-51
2021/10/06 10:56:37;;;;;;;2.27;1.00;;;18.90;1.00;;;;;;5111527;28;20220;-54
2021/10/06 10:59:12;;;;;;;1.90;1.03;;;19.20;1.00;;;;;;5111696;28;20442;-53
2021/10/06 11:01:45;;;;;;;2.20;1.30;;;19.30;1.00;;;;;;5111669;28;20470;-54
2021/10/06 11:04:15;;;;;;;2.07;0.83;;;19.50;1.00;;;;;;5111512;28;20442;-52
2021/10/06 11:06:46;;;;;;;1.17;0.77;;;19.50;1.00;;;;;;5111584;27;20435;-52
2021/10/06 11:09:30;;;;;;;2.73;0.80;;;19.60;1.00;;;;;;5111515;28;20454;-53
2021/10/06 11:12:19;;;;;;;3.40;1.10;;;19.60;1.00;;;;;;5111579;28;20437;-52
2021/10/06 11:14:47;;;;;;;3.10;0.90;;;19.50;1.00;;;;;;5098439;28;20469;-55
2021/10/06 11:17:18;;;;;;;8.23;1.47;;;19.20;1.00;;;;;;5111341;28;20416;-54
2021/10/06 11:19:54;;;;;;;1.07;0.70;;;19.00;1.00;;;;;;5106902;28;20439;-54
2021/10/06 11:22:23;;;;;;;2.50;0.80;;;18.80;1.00;;;;;;5107366;28;20481;-54
2021/10/06 11:24:58;;;;;;;1.00;0.70;;;18.80;1.00;;;;;;5090839;28;20915;-53
2021/10/06 11:27:25;;;;;;;2.30;0.60;;;18.70;1.00;;;;;;5111149;28;20440;-53
2021/10/06 11:29:53;;;;;;;1.33;0.87;;;18.60;1.00;;;;;;5109700;28;20418;-56
2021/10/06 11:32:19;;;;;;;1.47;0.90;;;18.90;1.00;;;;;;5110963;28;20471;-53
2021/10/06 11:34:49;;;;;;;2.00;0.80;;;19.00;1.00;;;;;;5110451;28;20928;-55
2021/10/06 11:37:17;;;;;;;2.73;1.30;;;18.90;1.00;;;;;;5111245;28;20411;-54
2021/10/06 11:39:43;;;;;;;1.63;0.90;;;18.70;1.00;;;;;;5107351;28;20989;-53
2021/10/06 11:42:09;;;;;;;2.40;0.90;;;18.40;1.00;;;;;;5110411;28;20451;-52
2021/10/06 11:44:36;;;;;;;1.67;0.80;;;18.30;1.00;;;;;;5109955;28;20425;-54
2021/10/06 11:47:08;;;;;;;1.47;0.77;;;18.40;1.00;;;;;;5108433;27;20264;-53
2021/10/06 11:49:36;;;;;;;1.63;1.00;;;18.60;1.00;;;;;;5107752;28;20459;-55
2021/10/06 11:52:02;;;;;;;1.00;0.90;;;18.80;1.00;;;;;;5107592;28;20999;-54
2021/10/06 11:54:28;;;;;;;3.20;0.80;;;18.80;1.00;;;;;;5103283;28;20446;-53
2021/10/06 11:56:56;;;;;;;3.57;1.20;;;18.70;1.00;;;;;;5109261;28;20516;-53
2021/10/06 11:59:30;;;;;;;2.60;1.00;;;18.60;1.00;;;;;;5107145;28;20182;-52
2021/10/06 12:02:01;;;;;;;3.90;0.90;;;18.70;1.00;;;;;;5108954;28;20435;-54
2021/10/06 12:04:32;;;;;;;1.77;0.80;;;18.60;1.00;;;;;;5089706;28;20419;-54
2021/10/06 12:07:00;;;;;;;1.87;0.97;;;18.40;1.00;;;;;;5109106;28;20512;-54
2021/10/06 12:09:36;;;;;;;1.87;0.90;;;18.50;1.00;;;;;;5110759;28;20456;-54
2021/10/06 12:12:21;;;;;;;2.53;0.93;;;18.20;1.00;;;;;;5105921;28;20800;-56
2021/10/06 12:14:57;;;;;;;2.63;1.37;;;18.20;1.00;;;;;;5110259;28;20850;-53
2021/10/06 12:17:25;;;;;;;2.30;0.87;;;18.20;1.00;;;;;;5107511;28;20429;-52
2021/10/06 12:19:59;;;;;;;1.40;1.00;;;18.20;1.00;;;;;;5108249;28;20421;-51
2021/10/06 12:22:39;;;;;;;3.77;1.03;;;18.30;1.00;;;;;;5110394;28;20455;-53
2021/10/06 12:25:08;;;;;;;1.80;1.40;;;18.20;1.00;;;;;;5110258;28;20885;-55
2021/10/06 12:27:38;;;;;;;1.20;0.80;;;18.00;1.00;;;;;;5110453;28;20407;-54
2021/10/06 12:30:07;;;;;;;2.50;1.17;;;18.00;1.00;;;;;;5110253;28;20449;-55
2021/10/06 12:32:33;;;;;;;3.10;2.13;;;18.00;1.00;;;;;;5110419;28;20442;-53
2021/10/06 12:35:44;;;;;;;2.00;1.00;;;18.10;1.00;;;;;;5110275;28;20458;-53
2021/10/06 12:38:11;;;;;;;1.67;0.90;;;18.20;1.00;;;;;;5072205;28;21111;-54
2021/10/06 12:40:50;;;;;;;4.17;0.90;;;18.40;1.00;;;;;;5110295;28;20419;-54
2021/10/06 12:43:22;;;;;;;2.50;1.07;;;18.60;1.00;;;;;;5110371;28;20488;-53
2021/10/06 12:46:06;;;;;;;2.63;1.13;;;18.70;1.00;;;;;;5092248;28;20413;-55
2021/10/06 12:48:37;;;;;;;4.10;1.43;;;18.70;1.00;;;;;;5100409;28;20454;-53
2021/10/06 12:51:04;;;;;;;3.43;0.97;;;18.80;1.00;;;;;;5109200;28;20471;-52